sensor_id;sensor_type;location;lat;lon;timestamp;P1;durP1;ratioP1;P2;durP2;ratioP2
79543;SDS011;68994;47.176;7.534;2023-04-03T00:00:26;2.97;;;2.78;;
79543;SDS011;68994;47.176;7.534;2023-04-03T00:02:53;2.10;;;1.90;;
79543;SDS011;68994;47.176;7.534;2023-04-03T00:05:20;2.35;;;2.15;;
79543;SDS011;68994;47.176;7.534;2023-04-03T00:07:47;2.67;;;2.38;;
79543;SDS011;68994;47.176;7.534;2023-04-03T00:10:14;2.25;;;1.55;;
79543;SDS011;68994;47.176;7.534;2023-04-03T00:12:41;3.63;;;2.53;;
79543;SDS011;68994;47.176;7.534;2023-04-03T00:15:08;2.65;;;2.38;;
79543;SDS011;68994;47.176;7.534;2023-04-03T00:17:35;2.72;;;2.53;;
79543;SDS011;68994;47.176;7.534;2023-04-03T00:20:02;2.47;;;2.28;;
79543;SDS011;68994;47.176;7.534;2023-04-03T00:22:31;2.05;;;1.77;;
79543;SDS011;68994;47.176;7.534;2023-04-03T00:24:58;2.45;;;2.25;;
79543;SDS011;68994;47.176;7.534;2023-04-03T00:27:24;2.30;;;2.10;;
79543;SDS011;68994;47.176;7.534;2023-04-03T00:29:51;2.00;;;1.35;;
79543;SDS011;68994;47.176;7.534;2023-04-03T00:32:17;2.47;;;2.28;;
79543;SDS011;68994;47.176;7.534;2023-04-03T00:34:44;2.40;;;2.03;;
79543;SDS011;68994;47.176;7.534;2023-04-03T00:37:11;2.58;;;2.38;;
79543;SDS011;68994;47.176;7.534;2023-04-03T00:39:39;2.25;;;1.85;;
79543;SDS011;68994;47.176;7.534;2023-04-03T00:42:06;2.30;;;2.10;;
79543;SDS011;68994;47.176;7.534;2023-04-03T00:47:35;2.30;;;2.10;;
79543;SDS011;68994;47.176;7.534;2023-04-03T00:50:04;2.78;;;2.47;;
79543;SDS011;68994;47.176;7.534;2023-04-03T00:52:32;1.77;;;1.67;;
79543;SDS011;68994;47.176;7.534;2023-04-03T00:55:00;3.30;;;3.10;;
79543;SDS011;68994;47.176;7.534;2023-04-03T00:57:30;1.58;;;1.38;;
79543;SDS011;68994;47.176;7.534;2023-04-03T00:59:59;2.13;;;1.88;;
79543;SDS011;68994;47.176;7.534;2023-04-03T01:02:31;2.45;;;2.25;;
79543;SDS011;68994;47.176;7.534;2023-04-03T01:04:58;3.05;;;2.30;;
79543;SDS011;68994;47.176;7.534;2023-04-03T01:07:26;1.60;;;1.00;;
79543;SDS011;68994;47.176;7.534;2023-04-03T01:09:56;1.40;;;1.23;;
79543;SDS011;68994;47.176;7.534;2023-04-03T01:12:26;2.42;;;2.22;;
79543;SDS011;68994;47.176;7.534;2023-04-03T01:14:55;1.98;;;1.88;;
79543;SDS011;68994;47.176;7.534;2023-04-03T01:17:27;2.25;;;2.05;;
79543;SDS011;68994;47.176;7.534;2023-04-03T01:19:58;1.92;;;1.38;;
79543;SDS011;68994;47.176;7.534;2023-04-03T01:22:37;2.05;;;1.08;;
79543;SDS011;68994;47.176;7.534;2023-04-03T01:25:07;1.95;;;1.10;;
79543;SDS011;68994;47.176;7.534;2023-04-03T01:27:35;2.95;;;2.33;;
79543;SDS011;68994;47.176;7.534;2023-04-03T01:30:02;2.10;;;1.90;;
79543;SDS011;68994;47.176;7.534;2023-04-03T01:32:30;2.17;;;1.65;;
79543;SDS011;68994;47.176;7.534;2023-04-03T01:34:57;2.35;;;2.15;;
79543;SDS011;68994;47.176;7.534;2023-04-03T01:37:23;2.42;;;2.22;;
79543;SDS011;68994;47.176;7.534;2023-04-03T01:39:50;2.55;;;2.17;;
79543;SDS011;68994;47.176;7.534;2023-04-03T01:42:16;2.25;;;2.05;;
79543;SDS011;68994;47.176;7.534;2023-04-03T01:44:43;1.65;;;1.42;;
79543;SDS011;68994;47.176;7.534;2023-04-03T01:47:10;1.95;;;1.85;;
79543;SDS011;68994;47.176;7.534;2023-04-03T01:49:38;2.45;;;2.00;;
79543;SDS011;68994;47.176;7.534;2023-04-03T01:52:05;3.35;;;1.83;;
79543;SDS011;68994;47.176;7.534;2023-04-03T01:54:32;2.83;;;1.90;;
79543;SDS011;68994;47.176;7.534;2023-04-03T01:56:58;3.60;;;3.30;;
79543;SDS011;68994;47.176;7.534;2023-04-03T01:59:25;3.55;;;3.25;;
79543;SDS011;68994;47.176;7.534;2023-04-03T02:01:51;3.10;;;2.80;;
79543;SDS011;68994;47.176;7.534;2023-04-03T02:04:18;3.28;;;2.97;;
79543;SDS011;68994;47.176;7.534;2023-04-03T02:06:46;3.80;;;3.50;;
79543;SDS011;68994;47.176;7.534;2023-04-03T02:09:12;4.53;;;3.72;;
79543;SDS011;68994;47.176;7.534;2023-04-03T02:11:39;4.43;;;3.78;;
79543;SDS011;68994;47.176;7.534;2023-04-03T02:14:06;3.40;;;2.70;;
79543;SDS011;68994;47.176;7.534;2023-04-03T02:16:32;4.68;;;4.25;;
79543;SDS011;68994;47.176;7.534;2023-04-03T02:18:59;5.43;;;3.95;;
79543;SDS011;68994;47.176;7.534;2023-04-03T02:21:25;4.63;;;3.92;;
79543;SDS011;68994;47.176;7.534;2023-04-03T02:23:54;4.72;;;4.00;;
79543;SDS011;68994;47.176;7.534;2023-04-03T02:26:20;4.57;;;3.78;;
79543;SDS011;68994;47.176;7.534;2023-04-03T02:28:47;4.78;;;4.30;;
79543;SDS011;68994;47.176;7.534;2023-04-03T02:31:13;4.57;;;4.13;;
79543;SDS011;68994;47.176;7.534;2023-04-03T02:33:40;4.53;;;4.03;;
79543;SDS011;68994;47.176;7.534;2023-04-03T02:36:07;4.97;;;4.50;;
79543;SDS011;68994;47.176;7.534;2023-04-03T02:38:35;4.72;;;3.47;;
79543;SDS011;68994;47.176;7.534;2023-04-03T02:41:03;5.90;;;4.43;;
79543;SDS011;68994;47.176;7.534;2023-04-03T02:43:31;5.18;;;4.68;;
79543;SDS011;68994;47.176;7.534;2023-04-03T02:45:58;5.78;;;4.22;;
79543;SDS011;68994;47.176;7.534;2023-04-03T02:48:25;5.03;;;4.13;;
79543;SDS011;68994;47.176;7.534;2023-04-03T02:50:52;5.90;;;4.30;;
79543;SDS011;68994;47.176;7.534;2023-04-03T02:53:18;4.90;;;4.50;;
79543;SDS011;68994;47.176;7.534;2023-04-03T02:55:45;5.95;;;3.75;;
79543;SDS011;68994;47.176;7.534;2023-04-03T02:58:13;5.55;;;5.05;;
79543;SDS011;68994;47.176;7.534;2023-04-03T03:00:40;5.13;;;4.63;;
79543;SDS011;68994;47.176;7.534;2023-04-03T03:03:07;5.18;;;3.38;;
79543;SDS011;68994;47.176;7.534;2023-04-03T03:05:34;5.97;;;4.95;;
79543;SDS011;68994;47.176;7.534;2023-04-03T03:08:01;6.22;;;5.60;;
79543;SDS011;68994;47.176;7.534;2023-04-03T03:10:27;6.25;;;5.65;;
79543;SDS011;68994;47.176;7.534;2023-04-03T03:12:54;6.18;;;5.57;;
79543;SDS011;68994;47.176;7.534;2023-04-03T03:15:22;5.88;;;5.28;;
79543;SDS011;68994;47.176;7.534;2023-04-03T03:17:48;6.93;;;5.55;;
79543;SDS011;68994;47.176;7.534;2023-04-03T03:20:15;5.93;;;4.45;;
79543;SDS011;68994;47.176;7.534;2023-04-03T03:22:42;6.00;;;4.90;;
79543;SDS011;68994;47.176;7.534;2023-04-03T03:25:08;9.30;;;5.63;;
79543;SDS011;68994;47.176;7.534;2023-04-03T03:27:35;6.32;;;5.72;;
79543;SDS011;68994;47.176;7.534;2023-04-03T03:30:02;6.35;;;5.53;;
79543;SDS011;68994;47.176;7.534;2023-04-03T03:32:31;6.30;;;4.22;;
79543;SDS011;68994;47.176;7.534;2023-04-03T03:34:57;6.03;;;5.35;;
79543;SDS011;68994;47.176;7.534;2023-04-03T03:37:24;4.25;;;3.78;;
79543;SDS011;68994;47.176;7.534;2023-04-03T03:39:51;4.80;;;3.97;;
79543;SDS011;68994;47.176;7.534;2023-04-03T03:42:17;6.38;;;5.60;;
79543;SDS011;68994;47.176;7.534;2023-04-03T03:44:44;6.15;;;5.55;;
79543;SDS011;68994;47.176;7.534;2023-04-03T03:47:10;8.95;;;5.22;;
79543;SDS011;68994;47.176;7.534;2023-04-03T03:49:38;6.85;;;6.25;;
79543;SDS011;68994;47.176;7.534;2023-04-03T03:52:05;6.18;;;5.57;;
79543;SDS011;68994;47.176;7.534;2023-04-03T03:54:35;6.40;;;5.45;;
79543;SDS011;68994;47.176;7.534;2023-04-03T03:57:02;6.07;;;5.50;;
79543;SDS011;68994;47.176;7.534;2023-04-03T03:59:28;6.90;;;6.00;;
79543;SDS011;68994;47.176;7.534;2023-04-03T04:01:55;7.30;;;6.07;;
79543;SDS011;68994;47.176;7.534;2023-04-03T04:04:21;6.05;;;5.35;;
79543;SDS011;68994;47.176;7.534;2023-04-03T04:06:49;5.25;;;4.75;;
79543;SDS011;68994;47.176;7.534;2023-04-03T04:11:43;4.85;;;3.53;;
79543;SDS011;68994;47.176;7.534;2023-04-03T04:14:10;5.57;;;5.07;;
79543;SDS011;68994;47.176;7.534;2023-04-03T04:16:37;5.50;;;4.97;;
79543;SDS011;68994;47.176;7.534;2023-04-03T04:19:04;6.10;;;5.55;;
79543;SDS011;68994;47.176;7.534;2023-04-03T04:21:30;5.95;;;4.47;;
79543;SDS011;68994;47.176;7.534;2023-04-03T04:23:58;7.60;;;5.75;;
79543;SDS011;68994;47.176;7.534;2023-04-03T04:26:25;5.80;;;4.53;;
79543;SDS011;68994;47.176;7.534;2023-04-03T04:28:51;6.38;;;5.78;;
79543;SDS011;68994;47.176;7.534;2023-04-03T04:31:18;7.35;;;5.53;;
79543;SDS011;68994;47.176;7.534;2023-04-03T04:33:45;6.13;;;5.53;;
79543;SDS011;68994;47.176;7.534;2023-04-03T04:36:11;7.70;;;7.00;;
79543;SDS011;68994;47.176;7.534;2023-04-03T04:38:39;6.88;;;6.25;;
79543;SDS011;68994;47.176;7.534;2023-04-03T04:41:07;9.52;;;7.30;;
79543;SDS011;68994;47.176;7.534;2023-04-03T04:43:34;7.25;;;6.22;;
79543;SDS011;68994;47.176;7.534;2023-04-03T04:46:01;6.00;;;5.40;;
79543;SDS011;68994;47.176;7.534;2023-04-03T04:48:28;7.47;;;6.63;;
79543;SDS011;68994;47.176;7.534;2023-04-03T04:50:55;6.85;;;6.15;;
79543;SDS011;68994;47.176;7.534;2023-04-03T04:53:21;6.15;;;5.55;;
79543;SDS011;68994;47.176;7.534;2023-04-03T04:55:48;5.47;;;4.88;;
79543;SDS011;68994;47.176;7.534;2023-04-03T04:58:16;7.00;;;6.20;;
79543;SDS011;68994;47.176;7.534;2023-04-03T05:00:42;7.07;;;6.28;;
79543;SDS011;68994;47.176;7.534;2023-04-03T05:03:09;6.88;;;6.28;;
79543;SDS011;68994;47.176;7.534;2023-04-03T05:05:36;6.40;;;5.75;;
79543;SDS011;68994;47.176;7.534;2023-04-03T05:08:03;7.20;;;5.47;;
79543;SDS011;68994;47.176;7.534;2023-04-03T05:10:30;4.05;;;3.38;;
79543;SDS011;68994;47.176;7.534;2023-04-03T05:12:56;6.15;;;5.55;;
79543;SDS011;68994;47.176;7.534;2023-04-03T05:15:25;5.72;;;5.03;;
79543;SDS011;68994;47.176;7.534;2023-04-03T05:17:51;7.55;;;6.32;;
79543;SDS011;68994;47.176;7.534;2023-04-03T05:20:18;6.55;;;5.95;;
79543;SDS011;68994;47.176;7.534;2023-04-03T05:22:45;7.05;;;6.35;;
79543;SDS011;68994;47.176;7.534;2023-04-03T05:25:11;6.13;;;5.53;;
79543;SDS011;68994;47.176;7.534;2023-04-03T05:27:38;7.78;;;5.97;;
79543;SDS011;68994;47.176;7.534;2023-04-03T05:30:05;6.55;;;5.95;;
79543;SDS011;68994;47.176;7.534;2023-04-03T05:32:34;7.40;;;5.82;;
79543;SDS011;68994;47.176;7.534;2023-04-03T05:35:01;6.82;;;6.20;;
79543;SDS011;68994;47.176;7.534;2023-04-03T05:37:27;7.57;;;6.40;;
79543;SDS011;68994;47.176;7.534;2023-04-03T05:39:54;6.65;;;5.95;;
79543;SDS011;68994;47.176;7.534;2023-04-03T05:42:20;6.75;;;6.05;;
79543;SDS011;68994;47.176;7.534;2023-04-03T05:44:47;7.20;;;6.50;;
79543;SDS011;68994;47.176;7.534;2023-04-03T05:47:15;7.28;;;6.57;;
79543;SDS011;68994;47.176;7.534;2023-04-03T05:49:43;8.15;;;6.93;;
79543;SDS011;68994;47.176;7.534;2023-04-03T05:52:11;7.55;;;6.85;;
79543;SDS011;68994;47.176;7.534;2023-04-03T05:54:46;6.32;;;5.70;;
79543;SDS011;68994;47.176;7.534;2023-04-03T05:57:13;7.45;;;6.38;;
79543;SDS011;68994;47.176;7.534;2023-04-03T05:59:41;8.48;;;7.47;;
79543;SDS011;68994;47.176;7.534;2023-04-03T06:02:08;6.38;;;5.15;;
79543;SDS011;68994;47.176;7.534;2023-04-03T06:04:36;9.00;;;8.10;;
79543;SDS011;68994;47.176;7.534;2023-04-03T06:07:04;8.70;;;7.30;;
79543;SDS011;68994;47.176;7.534;2023-04-03T06:09:31;8.73;;;7.82;;
79543;SDS011;68994;47.176;7.534;2023-04-03T06:11:58;9.02;;;8.13;;
79543;SDS011;68994;47.176;7.534;2023-04-03T06:14:25;9.73;;;7.72;;
79543;SDS011;68994;47.176;7.534;2023-04-03T06:16:52;8.85;;;7.18;;
79543;SDS011;68994;47.176;7.534;2023-04-03T06:19:19;9.25;;;6.57;;
79543;SDS011;68994;47.176;7.534;2023-04-03T06:21:46;10.20;;;8.20;;
79543;SDS011;68994;47.176;7.534;2023-04-03T06:24:15;9.35;;;8.43;;
79543;SDS011;68994;47.176;7.534;2023-04-03T06:26:42;8.48;;;7.50;;
79543;SDS011;68994;47.176;7.534;2023-04-03T06:29:09;9.00;;;8.02;;
79543;SDS011;68994;47.176;7.534;2023-04-03T06:31:36;7.90;;;7.13;;
79543;SDS011;68994;47.176;7.534;2023-04-03T06:34:03;9.85;;;8.93;;
79543;SDS011;68994;47.176;7.534;2023-04-03T06:36:30;8.93;;;7.82;;
79543;SDS011;68994;47.176;7.534;2023-04-03T06:38:57;7.38;;;5.80;;
79543;SDS011;68994;47.176;7.534;2023-04-03T06:41:25;9.40;;;8.50;;
79543;SDS011;68994;47.176;7.534;2023-04-03T06:43:52;8.73;;;7.88;;
79543;SDS011;68994;47.176;7.534;2023-04-03T06:46:21;9.85;;;8.95;;
79543;SDS011;68994;47.176;7.534;2023-04-03T06:48:48;8.10;;;7.32;;
79543;SDS011;68994;47.176;7.534;2023-04-03T06:51:19;8.07;;;6.20;;
79543;SDS011;68994;47.176;7.534;2023-04-03T06:53:47;7.95;;;6.35;;
79543;SDS011;68994;47.176;7.534;2023-04-03T06:56:15;8.15;;;7.30;;
79543;SDS011;68994;47.176;7.534;2023-04-03T06:58:43;8.43;;;6.55;;
79543;SDS011;68994;47.176;7.534;2023-04-03T07:01:11;9.07;;;7.97;;
79543;SDS011;68994;47.176;7.534;2023-04-03T07:03:39;8.98;;;8.18;;
79543;SDS011;68994;47.176;7.534;2023-04-03T07:06:07;9.48;;;8.45;;
79543;SDS011;68994;47.176;7.534;2023-04-03T07:08:35;8.65;;;7.75;;
79543;SDS011;68994;47.176;7.534;2023-04-03T07:11:02;9.07;;;8.10;;
79543;SDS011;68994;47.176;7.534;2023-04-03T07:13:30;8.57;;;7.68;;
79543;SDS011;68994;47.176;7.534;2023-04-03T07:15:58;10.00;;;8.50;;
79543;SDS011;68994;47.176;7.534;2023-04-03T07:18:25;9.25;;;8.27;;
79543;SDS011;68994;47.176;7.534;2023-04-03T07:20:52;9.50;;;8.50;;
79543;SDS011;68994;47.176;7.534;2023-04-03T07:23:19;9.38;;;8.18;;
79543;SDS011;68994;47.176;7.534;2023-04-03T07:25:45;9.00;;;8.15;;
79543;SDS011;68994;47.176;7.534;2023-04-03T07:28:13;7.90;;;7.10;;
79543;SDS011;68994;47.176;7.534;2023-04-03T07:30:43;9.73;;;7.28;;
79543;SDS011;68994;47.176;7.534;2023-04-03T07:33:13;9.25;;;8.35;;
79543;SDS011;68994;47.176;7.534;2023-04-03T07:35:41;9.65;;;8.07;;
79543;SDS011;68994;47.176;7.534;2023-04-03T07:38:08;8.15;;;7.22;;
79543;SDS011;68994;47.176;7.534;2023-04-03T07:40:35;8.63;;;7.50;;
79543;SDS011;68994;47.176;7.534;2023-04-03T07:43:02;8.23;;;7.53;;
79543;SDS011;68994;47.176;7.534;2023-04-03T07:45:30;8.98;;;8.15;;
79543;SDS011;68994;47.176;7.534;2023-04-03T07:47:58;9.00;;;5.90;;
79543;SDS011;68994;47.176;7.534;2023-04-03T07:50:26;8.80;;;7.88;;
79543;SDS011;68994;47.176;7.534;2023-04-03T07:52:55;7.50;;;6.78;;
79543;SDS011;68994;47.176;7.534;2023-04-03T07:55:22;8.45;;;7.40;;
79543;SDS011;68994;47.176;7.534;2023-04-03T07:57:49;7.45;;;6.60;;
79543;SDS011;68994;47.176;7.534;2023-04-03T08:00:16;7.25;;;6.43;;
79543;SDS011;68994;47.176;7.534;2023-04-03T08:02:44;7.32;;;5.13;;
79543;SDS011;68994;47.176;7.534;2023-04-03T08:05:15;7.60;;;6.32;;
79543;SDS011;68994;47.176;7.534;2023-04-03T08:07:43;8.88;;;7.93;;
79543;SDS011;68994;47.176;7.534;2023-04-03T08:10:10;7.00;;;6.30;;
79543;SDS011;68994;47.176;7.534;2023-04-03T08:12:36;7.45;;;6.43;;
79543;SDS011;68994;47.176;7.534;2023-04-03T08:15:03;6.75;;;6.15;;
79543;SDS011;68994;47.176;7.534;2023-04-03T08:17:32;7.10;;;6.15;;
79543;SDS011;68994;47.176;7.534;2023-04-03T08:19:58;6.38;;;5.60;;
79543;SDS011;68994;47.176;7.534;2023-04-03T08:22:25;6.03;;;5.43;;
79543;SDS011;68994;47.176;7.534;2023-04-03T08:24:53;7.13;;;5.90;;
79543;SDS011;68994;47.176;7.534;2023-04-03T08:27:20;5.85;;;5.30;;
79543;SDS011;68994;47.176;7.534;2023-04-03T08:29:47;6.05;;;5.13;;
79543;SDS011;68994;47.176;7.534;2023-04-03T08:32:13;6.45;;;4.97;;
79543;SDS011;68994;47.176;7.534;2023-04-03T08:34:40;5.85;;;5.15;;
79543;SDS011;68994;47.176;7.534;2023-04-03T08:37:06;5.88;;;5.28;;
79543;SDS011;68994;47.176;7.534;2023-04-03T08:39:33;7.05;;;5.72;;
79543;SDS011;68994;47.176;7.534;2023-04-03T08:42:03;5.75;;;5.15;;
79543;SDS011;68994;47.176;7.534;2023-04-03T08:44:41;5.47;;;4.97;;
79543;SDS011;68994;47.176;7.534;2023-04-03T08:47:18;5.55;;;3.92;;
79543;SDS011;68994;47.176;7.534;2023-04-03T08:49:49;5.72;;;5.22;;
79543;SDS011;68994;47.176;7.534;2023-04-03T08:52:20;5.63;;;5.13;;
79543;SDS011;68994;47.176;7.534;2023-04-03T08:54:53;3.90;;;3.13;;
79543;SDS011;68994;47.176;7.534;2023-04-03T08:57:26;4.70;;;3.95;;
79543;SDS011;68994;47.176;7.534;2023-04-03T08:59:56;5.82;;;5.07;;
79543;SDS011;68994;47.176;7.534;2023-04-03T09:02:27;4.00;;;3.40;;
79543;SDS011;68994;47.176;7.534;2023-04-03T09:04:59;5.13;;;4.63;;
79543;SDS011;68994;47.176;7.534;2023-04-03T09:07:30;4.95;;;3.58;;
79543;SDS011;68994;47.176;7.534;2023-04-03T09:10:02;4.93;;;3.83;;
79543;SDS011;68994;47.176;7.534;2023-04-03T09:12:34;6.18;;;3.83;;
79543;SDS011;68994;47.176;7.534;2023-04-03T09:15:07;5.10;;;3.80;;
79543;SDS011;68994;47.176;7.534;2023-04-03T09:17:42;5.60;;;5.10;;
79543;SDS011;68994;47.176;7.534;2023-04-03T09:20:19;6.57;;;3.67;;
79543;SDS011;68994;47.176;7.534;2023-04-03T09:22:50;5.13;;;4.63;;
79543;SDS011;68994;47.176;7.534;2023-04-03T09:27:48;4.50;;;3.60;;
79543;SDS011;68994;47.176;7.534;2023-04-03T09:30:16;4.70;;;4.30;;
79543;SDS011;68994;47.176;7.534;2023-04-03T09:32:45;7.00;;;3.97;;
79543;SDS011;68994;47.176;7.534;2023-04-03T09:35:16;4.32;;;3.65;;
79543;SDS011;68994;47.176;7.534;2023-04-03T09:37:47;4.15;;;3.30;;
79543;SDS011;68994;47.176;7.534;2023-04-03T09:42:56;4.85;;;4.45;;
79543;SDS011;68994;47.176;7.534;2023-04-03T09:45:25;5.10;;;4.43;;
79543;SDS011;68994;47.176;7.534;2023-04-03T09:48:03;4.47;;;3.35;;
79543;SDS011;68994;47.176;7.534;2023-04-03T09:50:31;3.40;;;3.08;;
79543;SDS011;68994;47.176;7.534;2023-04-03T09:52:59;5.20;;;4.70;;
79543;SDS011;68994;47.176;7.534;2023-04-03T09:55:32;4.47;;;4.07;;
79543;SDS011;68994;47.176;7.534;2023-04-03T09:58:22;4.40;;;4.00;;
79543;SDS011;68994;47.176;7.534;2023-04-03T10:00:54;5.05;;;4.55;;
79543;SDS011;68994;47.176;7.534;2023-04-03T10:03:23;4.30;;;3.90;;
79543;SDS011;68994;47.176;7.534;2023-04-03T10:05:51;4.43;;;3.70;;
79543;SDS011;68994;47.176;7.534;2023-04-03T10:08:20;3.40;;;2.22;;
79543;SDS011;68994;47.176;7.534;2023-04-03T10:11:05;4.30;;;3.65;;
79543;SDS011;68994;47.176;7.534;2023-04-03T10:16:16;4.07;;;3.03;;
79543;SDS011;68994;47.176;7.534;2023-04-03T10:18:46;3.90;;;3.50;;
79543;SDS011;68994;47.176;7.534;2023-04-03T10:21:27;3.50;;;2.45;;
79543;SDS011;68994;47.176;7.534;2023-04-03T10:24:03;3.90;;;3.60;;
79543;SDS011;68994;47.176;7.534;2023-04-03T10:26:38;4.80;;;3.60;;
79543;SDS011;68994;47.176;7.534;2023-04-03T10:29:15;3.42;;;2.50;;
79543;SDS011;68994;47.176;7.534;2023-04-03T10:32:00;4.05;;;3.38;;
79543;SDS011;68994;47.176;7.534;2023-04-03T10:34:38;3.15;;;2.58;;
79543;SDS011;68994;47.176;7.534;2023-04-03T10:37:10;4.30;;;3.83;;
79543;SDS011;68994;47.176;7.534;2023-04-03T10:39:46;2.80;;;2.42;;
79543;SDS011;68994;47.176;7.534;2023-04-03T10:42:22;4.25;;;3.92;;
79543;SDS011;68994;47.176;7.534;2023-04-03T10:45:03;4.28;;;3.90;;
79543;SDS011;68994;47.176;7.534;2023-04-03T10:47:43;5.05;;;4.60;;
79543;SDS011;68994;47.176;7.534;2023-04-03T10:50:25;4.13;;;3.72;;
79543;SDS011;68994;47.176;7.534;2023-04-03T10:52:57;4.03;;;3.00;;
79543;SDS011;68994;47.176;7.534;2023-04-03T10:55:32;4.78;;;4.40;;
79543;SDS011;68994;47.176;7.534;2023-04-03T10:58:04;4.05;;;3.75;;
79543;SDS011;68994;47.176;7.534;2023-04-03T11:00:36;4.18;;;3.65;;
79543;SDS011;68994;47.176;7.534;2023-04-03T11:03:06;4.63;;;2.95;;
79543;SDS011;68994;47.176;7.534;2023-04-03T11:05:40;3.50;;;2.75;;
79543;SDS011;68994;47.176;7.534;2023-04-03T11:08:13;4.85;;;4.45;;
79543;SDS011;68994;47.176;7.534;2023-04-03T11:10:50;3.40;;;2.45;;
79543;SDS011;68994;47.176;7.534;2023-04-03T11:13:18;4.57;;;3.95;;
79543;SDS011;68994;47.176;7.534;2023-04-03T11:15:51;3.50;;;2.65;;
79543;SDS011;68994;47.176;7.534;2023-04-03T11:18:21;4.13;;;3.72;;
79543;SDS011;68994;47.176;7.534;2023-04-03T11:20:56;4.22;;;3.88;;
79543;SDS011;68994;47.176;7.534;2023-04-03T11:23:28;4.15;;;3.75;;
79543;SDS011;68994;47.176;7.534;2023-04-03T11:25:59;4.88;;;3.53;;
79543;SDS011;68994;47.176;7.534;2023-04-03T11:28:35;5.22;;;4.72;;
79543;SDS011;68994;47.176;7.534;2023-04-03T11:31:06;4.00;;;3.70;;
79543;SDS011;68994;47.176;7.534;2023-04-03T11:33:42;4.32;;;3.70;;
79543;SDS011;68994;47.176;7.534;2023-04-03T11:36:18;4.05;;;3.75;;
79543;SDS011;68994;47.176;7.534;2023-04-03T11:38:48;4.25;;;3.85;;
79543;SDS011;68994;47.176;7.534;2023-04-03T11:41:23;5.15;;;4.75;;
79543;SDS011;68994;47.176;7.534;2023-04-03T11:43:56;4.07;;;3.78;;
79543;SDS011;68994;47.176;7.534;2023-04-03T11:58:19;4.07;;;3.67;;
79543;SDS011;68994;47.176;7.534;2023-04-03T12:00:54;3.78;;;3.38;;
79543;SDS011;68994;47.176;7.534;2023-04-03T12:09:58;3.50;;;3.20;;
79543;SDS011;68994;47.176;7.534;2023-04-03T12:12:27;4.22;;;3.28;;
79543;SDS011;68994;47.176;7.534;2023-04-03T12:15:11;2.70;;;2.17;;
79543;SDS011;68994;47.176;7.534;2023-04-03T12:17:44;3.67;;;3.38;;
79543;SDS011;68994;47.176;7.534;2023-04-03T12:23:22;3.50;;;3.20;;
79543;SDS011;68994;47.176;7.534;2023-04-03T12:26:01;3.45;;;2.47;;
79543;SDS011;68994;47.176;7.534;2023-04-03T12:28:46;4.20;;;2.13;;
79543;SDS011;68994;47.176;7.534;2023-04-03T12:31:14;4.50;;;4.13;;
79543;SDS011;68994;47.176;7.534;2023-04-03T12:33:47;4.43;;;3.80;;
79543;SDS011;68994;47.176;7.534;2023-04-03T12:36:26;3.42;;;2.58;;
79543;SDS011;68994;47.176;7.534;2023-04-03T12:39:03;3.60;;;3.30;;
79543;SDS011;68994;47.176;7.534;2023-04-03T12:41:45;3.20;;;2.13;;
79543;SDS011;68994;47.176;7.534;2023-04-03T12:44:33;3.88;;;3.45;;
79543;SDS011;68994;47.176;7.534;2023-04-03T12:47:25;5.18;;;2.20;;
79543;SDS011;68994;47.176;7.534;2023-04-03T12:49:54;3.92;;;3.55;;
79543;SDS011;68994;47.176;7.534;2023-04-03T12:52:28;3.53;;;2.42;;
79543;SDS011;68994;47.176;7.534;2023-04-03T12:54:58;3.03;;;2.38;;
79543;SDS011;68994;47.176;7.534;2023-04-03T12:57:30;5.03;;;3.95;;
79543;SDS011;68994;47.176;7.534;2023-04-03T12:59:57;4.32;;;3.92;;
79543;SDS011;68994;47.176;7.534;2023-04-03T13:02:25;3.38;;;2.53;;
79543;SDS011;68994;47.176;7.534;2023-04-03T13:04:54;3.00;;;2.70;;
79543;SDS011;68994;47.176;7.534;2023-04-03T13:07:24;4.65;;;2.60;;
79543;SDS011;68994;47.176;7.534;2023-04-03T13:09:56;3.40;;;2.63;;
79543;SDS011;68994;47.176;7.534;2023-04-03T13:12:28;3.95;;;3.65;;
79543;SDS011;68994;47.176;7.534;2023-04-03T13:14:57;4.13;;;3.72;;
79543;SDS011;68994;47.176;7.534;2023-04-03T13:17:26;3.42;;;2.53;;
79543;SDS011;68994;47.176;7.534;2023-04-03T13:19:53;3.90;;;2.42;;
79543;SDS011;68994;47.176;7.534;2023-04-03T13:22:24;3.63;;;2.65;;
79543;SDS011;68994;47.176;7.534;2023-04-03T13:24:58;2.88;;;2.40;;
79543;SDS011;68994;47.176;7.534;2023-04-03T13:27:27;4.25;;;3.88;;
79543;SDS011;68994;47.176;7.534;2023-04-03T13:29:58;4.72;;;3.92;;
79543;SDS011;68994;47.176;7.534;2023-04-03T13:32:27;3.55;;;2.58;;
79543;SDS011;68994;47.176;7.534;2023-04-03T13:34:57;3.35;;;2.47;;
79543;SDS011;68994;47.176;7.534;2023-04-03T13:37:25;4.57;;;3.75;;
79543;SDS011;68994;47.176;7.534;2023-04-03T13:39:59;3.92;;;2.63;;
79543;SDS011;68994;47.176;7.534;2023-04-03T13:42:31;4.00;;;3.17;;
79543;SDS011;68994;47.176;7.534;2023-04-03T13:45:18;4.65;;;2.95;;
79543;SDS011;68994;47.176;7.534;2023-04-03T13:47:49;4.53;;;3.47;;
79543;SDS011;68994;47.176;7.534;2023-04-03T13:50:18;4.38;;;3.97;;
79543;SDS011;68994;47.176;7.534;2023-04-03T13:52:48;4.28;;;3.78;;
79543;SDS011;68994;47.176;7.534;2023-04-03T13:55:20;2.90;;;2.33;;
79543;SDS011;68994;47.176;7.534;2023-04-03T13:57:51;3.42;;;3.13;;
79543;SDS011;68994;47.176;7.534;2023-04-03T14:00:26;3.58;;;3.17;;
79543;SDS011;68994;47.176;7.534;2023-04-03T14:02:56;4.00;;;3.60;;
79543;SDS011;68994;47.176;7.534;2023-04-03T14:05:23;3.90;;;2.47;;
79543;SDS011;68994;47.176;7.534;2023-04-03T14:10:19;4.05;;;3.67;;
79543;SDS011;68994;47.176;7.534;2023-04-03T14:12:46;4.43;;;2.72;;
79543;SDS011;68994;47.176;7.534;2023-04-03T14:15:18;3.05;;;2.70;;
79543;SDS011;68994;47.176;7.534;2023-04-03T14:17:49;4.45;;;4.05;;
79543;SDS011;68994;47.176;7.534;2023-04-03T14:20:17;3.45;;;2.28;;
79543;SDS011;68994;47.176;7.534;2023-04-03T14:22:45;3.97;;;2.97;;
79543;SDS011;68994;47.176;7.534;2023-04-03T14:25:13;4.32;;;3.55;;
79543;SDS011;68994;47.176;7.534;2023-04-03T14:27:41;4.18;;;3.00;;
79543;SDS011;68994;47.176;7.534;2023-04-03T14:30:12;3.42;;;2.63;;
79543;SDS011;68994;47.176;7.534;2023-04-03T14:32:44;5.47;;;4.47;;
79543;SDS011;68994;47.176;7.534;2023-04-03T14:35:12;4.70;;;3.60;;
79543;SDS011;68994;47.176;7.534;2023-04-03T14:37:39;4.15;;;3.78;;
79543;SDS011;68994;47.176;7.534;2023-04-03T14:40:06;3.58;;;2.65;;
79543;SDS011;68994;47.176;7.534;2023-04-03T14:42:36;4.70;;;3.55;;
79543;SDS011;68994;47.176;7.534;2023-04-03T14:45:04;3.88;;;3.08;;
79543;SDS011;68994;47.176;7.534;2023-04-03T14:47:33;4.15;;;2.80;;
79543;SDS011;68994;47.176;7.534;2023-04-03T14:50:10;5.55;;;4.80;;
79543;SDS011;68994;47.176;7.534;2023-04-03T14:52:40;5.22;;;4.82;;
79543;SDS011;68994;47.176;7.534;2023-04-03T14:55:07;6.07;;;2.80;;
79543;SDS011;68994;47.176;7.534;2023-04-03T14:57:34;4.10;;;3.80;;
79543;SDS011;68994;47.176;7.534;2023-04-03T15:00:04;3.30;;;3.00;;
79543;SDS011;68994;47.176;7.534;2023-04-03T15:02:33;4.10;;;3.78;;
79543;SDS011;68994;47.176;7.534;2023-04-03T15:05:02;4.65;;;4.22;;
79543;SDS011;68994;47.176;7.534;2023-04-03T15:07:32;3.92;;;2.63;;
79543;SDS011;68994;47.176;7.534;2023-04-03T15:10:02;4.65;;;4.25;;
79543;SDS011;68994;47.176;7.534;2023-04-03T15:12:32;3.53;;;2.45;;
79543;SDS011;68994;47.176;7.534;2023-04-03T15:14:59;4.28;;;3.88;;
79543;SDS011;68994;47.176;7.534;2023-04-03T15:17:26;3.08;;;2.55;;
79543;SDS011;68994;47.176;7.534;2023-04-03T15:19:52;2.85;;;2.45;;
79543;SDS011;68994;47.176;7.534;2023-04-03T15:22:19;3.28;;;2.72;;
79543;SDS011;68994;47.176;7.534;2023-04-03T15:24:47;6.57;;;2.58;;
79543;SDS011;68994;47.176;7.534;2023-04-03T15:27:14;3.33;;;2.58;;
79543;SDS011;68994;47.176;7.534;2023-04-03T15:29:41;4.03;;;3.67;;
79543;SDS011;68994;47.176;7.534;2023-04-03T15:32:08;5.13;;;4.68;;
79543;SDS011;68994;47.176;7.534;2023-04-03T15:34:35;4.47;;;4.07;;
79543;SDS011;68994;47.176;7.534;2023-04-03T15:37:02;6.72;;;3.22;;